Time;durP1;ratioP1;P1;durP2;ratioP2;P2;SDS_P1;SDS_P2;PMS_P1;PMS_P2;Temp;Humidity;BMP_temperature;BMP_pressure;BME280_temperature;BME280_humidity;BME280_pressure;Samples;Min_cycle;Max_cycle;Signal;HPM_P1;HPM_P2
2022/03/19 00:02:18;;;;;;;11.35;2.50;;;8.50;99.90;;;;;;5044875;28;20033;-60
2022/03/19 00:04:44;;;;;;;13.65;2.30;;;8.50;99.90;;;;;;5048444;28;20025;-60
2022/03/19 00:07:09;;;;;;;6.30;2.10;;;8.40;99.90;;;;;;5048612;28;20037;-60
2022/03/19 00:09:35;;;;;;;12.73;2.80;;;8.40;99.90;;;;;;5048682;28;20036;-61
2022/03/19 00:12:01;;;;;;;12.27;3.60;;;8.40;99.90;;;;;;5043596;28;20037;-62
2022/03/19 00:14:27;;;;;;;15.18;2.60;;;8.30;99.90;;;;;;5048293;28;20032;-61
2022/03/19 00:16:53;;;;;;;17.98;3.88;;;8.30;99.90;;;;;;5048614;28;20481;-60
2022/03/19 00:19:18;;;;;;;13.18;3.67;;;8.30;99.90;;;;;;5052137;28;20041;-63
2022/03/19 00:21:44;;;;;;;12.68;2.53;;;8.30;99.90;;;;;;5043551;28;20107;-61
2022/03/19 00:24:10;;;;;;;11.75;2.63;;;8.30;99.90;;;;;;5051963;28;20048;-60
2022/03/19 00:26:36;;;;;;;22.67;4.25;;;8.20;99.90;;;;;;5051326;28;20025;-62
2022/03/19 00:29:01;;;;;;;14.52;2.75;;;8.20;99.90;;;;;;5051259;28;20029;-59
2022/03/19 00:31:28;;;;;;;20.38;4.28;;;8.20;99.90;;;;;;5051927;28;20036;-60
2022/03/19 00:33:54;;;;;;;13.43;2.42;;;8.20;99.90;;;;;;5051486;28;20086;-60
2022/03/19 00:36:20;;;;;;;13.18;3.28;;;8.20;99.90;;;;;;5051590;28;20112;-60
2022/03/19 00:38:46;;;;;;;12.48;2.33;;;8.10;99.90;;;;;;5051306;28;20129;-60
2022/03/19 00:41:12;;;;;;;19.58;2.70;;;8.00;99.90;;;;;;5051743;28;20199;-61
2022/03/19 00:43:38;;;;;;;11.27;2.33;;;8.00;99.90;;;;;;5053626;28;20107;-62
2022/03/19 00:46:03;;;;;;;15.02;2.40;;;7.90;99.90;;;;;;5051717;28;20029;-61
2022/03/19 00:48:29;;;;;;;11.63;3.45;;;8.00;99.90;;;;;;5050163;28;20028;-61
2022/03/19 00:50:55;;;;;;;11.52;2.90;;;8.00;99.90;;;;;;5050931;28;20041;-62
2022/03/19 00:53:20;;;;;;;21.27;3.78;;;7.90;99.90;;;;;;5051785;28;20477;-59
2022/03/19 00:55:46;;;;;;;10.32;3.00;;;7.90;99.90;;;;;;5051189;28;20049;-61
2022/03/19 00:58:12;;;;;;;13.35;2.72;;;7.90;99.90;;;;;;5051393;28;20063;-60
2022/03/19 01:00:38;;;;;;;11.90;2.63;;;7.90;99.90;;;;;;5050781;28;20037;-62
2022/03/19 01:03:04;;;;;;;16.45;2.50;;;7.90;99.90;;;;;;5051162;28;20040;-61
2022/03/19 01:05:29;;;;;;;12.20;2.13;;;7.80;99.90;;;;;;5051494;28;20033;-60
2022/03/19 01:07:56;;;;;;;12.43;2.17;;;7.80;99.90;;;;;;5051064;28;20037;-60
2022/03/19 01:10:27;;;;;;;14.63;2.85;;;7.80;99.90;;;;;;5051020;28;20037;-60
2022/03/19 01:12:54;;;;;;;7.57;2.85;;;7.80;99.90;;;;;;5050789;28;20106;-61
2022/03/19 01:15:21;;;;;;;22.50;3.72;;;7.80;99.90;;;;;;5050958;28;20097;-60
2022/03/19 01:17:47;;;;;;;14.80;2.30;;;7.80;99.90;;;;;;5050905;28;20045;-60
2022/03/19 01:20:15;;;;;;;12.35;2.30;;;7.80;99.90;;;;;;5050598;28;20041;-60
2022/03/19 01:22:42;;;;;;;9.60;2.20;;;7.70;99.90;;;;;;5050760;28;20037;-60
2022/03/19 01:25:10;;;;;;;17.67;2.50;;;7.70;99.90;;;;;;5051211;28;20028;-61
2022/03/19 01:27:37;;;;;;;10.57;2.10;;;7.60;99.90;;;;;;5051347;28;20045;-63
2022/03/19 01:30:04;;;;;;;14.20;3.33;;;7.60;99.90;;;;;;5049397;28;20040;-61
2022/03/19 01:32:30;;;;;;;9.00;2.13;;;7.60;99.90;;;;;;5050993;28;20029;-60
2022/03/19 01:34:55;;;;;;;13.88;2.83;;;7.60;99.90;;;;;;5050443;28;20040;-61
2022/03/19 01:37:22;;;;;;;14.88;2.10;;;7.50;99.90;;;;;;5051024;28;20043;-60
2022/03/19 01:39:48;;;;;;;14.05;3.05;;;7.50;99.90;;;;;;5050002;28;20033;-60
2022/03/19 01:42:24;;;;;;;13.05;2.60;;;7.40;99.90;;;;;;5052397;28;20123;-61
2022/03/19 01:44:50;;;;;;;17.13;3.17;;;7.40;99.90;;;;;;5047816;28;20047;-61
2022/03/19 01:47:15;;;;;;;8.90;2.58;;;7.40;99.90;;;;;;5050415;28;20025;-61
2022/03/19 01:49:41;;;;;;;10.02;2.30;;;7.40;99.90;;;;;;5050041;28;20496;-61
2022/03/19 01:52:07;;;;;;;12.60;2.10;;;7.50;99.90;;;;;;5050475;28;20120;-61
2022/03/19 01:54:39;;;;;;;10.60;2.72;;;7.40;99.90;;;;;;5050898;28;20481;-61
2022/03/19 01:57:05;;;;;;;10.05;2.88;;;7.40;99.90;;;;;;5051892;28;20052;-61
2022/03/19 01:59:34;;;;;;;12.07;2.13;;;7.40;99.90;;;;;;5052195;28;20037;-61
2022/03/19 02:02:07;;;;;;;9.73;2.20;;;7.30;99.90;;;;;;5051747;28;20478;-60
2022/03/19 02:04:35;;;;;;;8.43;2.40;;;7.30;99.90;;;;;;5052024;28;20033;-59
2022/03/19 02:07:01;;;;;;;12.98;2.75;;;7.30;99.90;;;;;;5052030;28;20025;-62
2022/03/19 02:09:28;;;;;;;10.73;2.13;;;7.20;99.90;;;;;;5045209;28;20112;-61
2022/03/19 02:11:53;;;;;;;12.15;2.58;;;7.20;99.90;;;;;;5049785;28;20029;-61
2022/03/19 02:14:19;;;;;;;9.05;2.25;;;7.10;99.90;;;;;;5048520;28;20186;-60
2022/03/19 02:16:46;;;;;;;12.55;2.45;;;7.10;99.90;;;;;;5049913;28;20040;-60
2022/03/19 02:19:12;;;;;;;9.45;2.40;;;7.00;99.90;;;;;;5051444;28;20113;-60
2022/03/19 02:21:39;;;;;;;7.93;2.65;;;7.10;99.90;;;;;;5053634;28;20512;-64
2022/03/19 02:26:49;;;;;;;16.35;3.42;;;7.10;99.90;;;;;;5056693;28;20519;-62
2022/03/19 02:29:15;;;;;;;7.90;2.00;;;7.00;99.90;;;;;;5050628;28;20033;-60
2022/03/19 02:31:43;;;;;;;13.98;3.53;;;7.00;99.90;;;;;;5049724;28;20037;-60
2022/03/19 02:34:08;;;;;;;11.18;1.80;;;6.90;99.90;;;;;;5050059;28;20025;-61
2022/03/19 02:36:40;;;;;;;14.13;2.65;;;6.90;99.90;;;;;;5049802;28;20040;-60
2022/03/19 02:39:17;;;;;;;11.13;2.58;;;6.90;99.90;;;;;;5049454;28;20551;-60
2022/03/19 02:41:48;;;;;;;13.75;2.35;;;6.90;99.90;;;;;;5046990;28;20037;-62
2022/03/19 02:44:14;;;;;;;;;;;6.80;99.90;;;;;;5049935;28;20036;-61
2022/03/19 02:46:41;;;;;;;10.65;2.10;;;6.80;99.90;;;;;;5049303;28;19947;-61
2022/03/19 02:49:07;;;;;;;13.23;2.42;;;6.80;99.90;;;;;;5045725;28;20392;-60
2022/03/19 02:51:34;;;;;;;12.57;2.38;;;6.70;99.90;;;;;;5049433;28;20021;-60
2022/03/19 02:54:02;;;;;;;13.18;2.03;;;6.70;99.90;;;;;;5049393;28;20040;-62
2022/03/19 02:56:27;;;;;;;8.95;2.42;;;6.70;99.90;;;;;;5049426;28;20017;-62
2022/03/19 02:58:53;;;;;;;9.20;2.00;;;6.80;99.90;;;;;;5049221;28;20512;-60
2022/03/19 03:01:18;;;;;;;11.00;2.78;;;6.70;99.90;;;;;;5046887;28;20048;-61
2022/03/19 03:03:44;;;;;;;15.30;3.13;;;6.70;99.90;;;;;;5047623;28;20248;-61
2022/03/19 03:06:09;;;;;;;16.90;3.22;;;6.60;99.90;;;;;;5049682;28;20075;-61
2022/03/19 03:08:35;;;;;;;15.55;2.33;;;6.70;99.90;;;;;;5045159;28;20033;-60
2022/03/19 03:11:01;;;;;;;12.27;2.63;;;6.60;99.90;;;;;;5048610;28;20503;-61
2022/03/19 03:13:26;;;;;;;9.93;2.15;;;6.60;99.90;;;;;;5049421;28;20549;-62
2022/03/19 03:15:52;;;;;;;10.95;2.00;;;6.60;99.90;;;;;;5048380;28;20048;-60
2022/03/19 03:18:18;;;;;;;8.65;2.60;;;6.60;99.90;;;;;;5049642;28;20025;-60
2022/03/19 03:20:44;;;;;;;16.50;2.80;;;6.60;99.90;;;;;;5047916;28;20531;-60
2022/03/19 03:23:10;;;;;;;8.00;2.45;;;6.60;99.90;;;;;;5049272;28;20029;-64
2022/03/19 03:25:36;;;;;;;16.77;2.80;;;6.60;99.90;;;;;;5049205;28;20060;-61
2022/03/19 03:28:02;;;;;;;11.45;2.58;;;6.60;99.90;;;;;;5048685;28;20586;-62
2022/03/19 03:30:27;;;;;;;10.40;3.10;;;6.50;99.90;;;;;;5048892;28;20041;-60
2022/03/19 03:32:53;;;;;;;8.05;2.78;;;6.50;99.90;;;;;;5048526;28;20064;-61
2022/03/19 03:35:25;;;;;;;10.73;2.05;;;6.60;99.90;;;;;;5048913;28;20465;-61
2022/03/19 03:37:51;;;;;;;13.88;2.28;;;6.50;99.90;;;;;;5047034;28;20045;-59
2022/03/19 03:40:18;;;;;;;10.43;3.40;;;6.50;99.90;;;;;;5048621;28;20500;-60
2022/03/19 03:42:44;;;;;;;15.18;2.85;;;6.50;99.90;;;;;;5048352;28;20033;-60
2022/03/19 03:45:10;;;;;;;9.30;2.15;;;6.50;99.90;;;;;;5048936;28;20455;-60
2022/03/19 03:47:36;;;;;;;13.05;2.55;;;6.50;99.90;;;;;;5048925;28;20114;-62
2022/03/19 03:50:02;;;;;;;10.10;2.15;;;6.50;99.90;;;;;;5048126;28;20056;-60
2022/03/19 03:52:30;;;;;;;16.10;2.80;;;6.60;99.90;;;;;;5050098;28;20028;-60
2022/03/19 03:54:56;;;;;;;15.90;3.00;;;6.50;99.90;;;;;;5051128;28;20043;-61
2022/03/19 03:57:22;;;;;;;19.48;2.42;;;6.50;99.90;;;;;;5052632;28;20409;-61
2022/03/19 03:59:52;;;;;;;11.20;2.40;;;6.50;99.90;;;;;;5052121;28;20033;-61
2022/03/19 04:02:18;;;;;;;9.60;2.60;;;6.50;99.90;;;;;;5052392;28;20025;-60
2022/03/19 04:04:43;;;;;;;12.25;2.20;;;6.60;99.90;;;;;;5052150;28;20063;-61
2022/03/19 04:07:09;;;;;;;12.98;3.97;;;6.50;99.90;;;;;;5052119;28;20554;-61
2022/03/19 04:09:35;;;;;;;12.70;3.15;;;6.50;99.90;;;;;;5052547;28;20083;-61
2022/03/19 04:12:03;;;;;;;11.60;2.25;;;6.40;99.90;;;;;;5051512;28;20037;-61
2022/03/19 04:14:29;;;;;;;19.20;3.20;;;6.40;99.90;;;;;;5052270;28;20037;-62
2022/03/19 04:16:55;;;;;;;8.75;2.55;;;6.40;99.90;;;;;;5051727;28;20040;-60
2022/03/19 04:19:20;;;;;;;13.95;3.28;;;6.40;99.90;;;;;;5052182;28;20029;-61
2022/03/19 04:21:46;;;;;;;14.15;2.75;;;6.40;99.90;;;;;;5051419;28;20464;-59
2022/03/19 04:24:11;;;;;;;23.25;3.75;;;6.40;99.90;;;;;;5052276;28;20350;-61
2022/03/19 04:26:37;;;;;;;13.77;2.85;;;6.40;99.90;;;;;;5052026;28;20033;-62
2022/03/19 04:29:03;;;;;;;15.65;3.72;;;6.30;99.90;;;;;;5051733;28;20447;-60
2022/03/19 04:31:28;;;;;;;8.32;2.42;;;6.30;99.90;;;;;;5051297;28;20392;-61
2022/03/19 04:33:54;;;;;;;10.52;3.25;;;6.30;99.90;;;;;;5051582;28;20025;-61
2022/03/19 04:36:33;;;;;;;10.90;2.63;;;6.20;99.90;;;;;;5051379;28;20067;-60
2022/03/19 04:39:02;;;;;;;14.77;3.72;;;6.30;99.90;;;;;;5051658;28;20029;-60
2022/03/19 04:41:28;;;;;;;13.10;2.70;;;6.30;99.90;;;;;;5051626;28;20036;-59
2022/03/19 04:43:54;;;;;;;11.05;3.40;;;6.30;99.90;;;;;;5051503;28;20033;-60
2022/03/19 04:46:21;;;;;;;14.00;3.28;;;6.20;99.90;;;;;;5051428;28;20378;-62
2022/03/19 04:48:46;;;;;;;16.17;2.85;;;6.10;99.90;;;;;;5051509;28;20124;-61
2022/03/19 04:51:18;;;;;;;19.30;3.33;;;6.20;99.90;;;;;;5051638;28;20029;-60
2022/03/19 04:53:51;;;;;;;20.38;3.92;;;6.10;99.90;;;;;;5050944;28;20025;-60
2022/03/19 04:56:24;;;;;;;13.95;4.38;;;6.20;99.90;;;;;;5051705;28;20067;-61
2022/03/19 04:58:55;;;;;;;11.00;2.92;;;6.10;99.90;;;;;;5050992;28;20067;-60
2022/03/19 05:01:21;;;;;;;12.98;3.13;;;6.10;99.90;;;;;;5051020;28;20045;-60
2022/03/19 05:03:47;;;;;;;12.68;2.80;;;6.20;99.90;;;;;;5050839;28;20492;-61
2022/03/19 05:06:12;;;;;;;17.50;3.63;;;6.20;99.90;;;;;;5051700;28;20029;-60
2022/03/19 05:08:38;;;;;;;14.13;3.42;;;6.20;99.90;;;;;;5050729;28;20025;-63
2022/03/19 05:11:13;;;;;;;11.52;4.05;;;6.10;99.90;;;;;;5051197;28;20040;-61
2022/03/19 05:13:44;;;;;;;13.13;3.55;;;6.00;99.90;;;;;;5050588;28;20033;-60
2022/03/19 05:16:10;;;;;;;13.18;3.20;;;6.00;99.90;;;;;;5049837;28;20037;-60
2022/03/19 05:18:36;;;;;;;17.60;5.35;;;6.00;99.90;;;;;;5051033;28;20079;-59
2022/03/19 05:21:02;;;;;;;9.60;2.97;;;6.00;99.90;;;;;;5050587;28;20083;-60
2022/03/19 05:23:28;;;;;;;16.35;2.85;;;6.00;99.90;;;;;;5051064;28;20072;-60
2022/03/19 05:25:53;;;;;;;15.20;2.97;;;6.00;99.90;;;;;;5050340;28;20040;-60
2022/03/19 05:28:19;;;;;;;10.57;2.92;;;5.90;99.90;;;;;;5050797;28;20103;-60
2022/03/19 05:30:46;;;;;;;13.48;2.72;;;5.90;99.90;;;;;;5050359;28;20063;-60
2022/03/19 05:33:13;;;;;;;13.13;3.28;;;5.90;99.90;;;;;;5049234;28;20082;-61
2022/03/19 05:35:40;;;;;;;10.48;3.13;;;5.80;99.90;;;;;;5050360;28;20124;-60
2022/03/19 05:38:06;;;;;;;9.57;3.03;;;5.90;99.90;;;;;;5050423;28;20043;-60
2022/03/19 05:40:32;;;;;;;11.32;3.63;;;5.80;99.90;;;;;;5050536;28;20033;-62
2022/03/19 05:42:57;;;;;;;13.35;3.65;;;5.80;99.90;;;;;;5054224;28;20033;-60
2022/03/19 05:45:23;;;;;;;12.45;3.63;;;5.90;99.90;;;;;;5050555;28;20033;-60
2022/03/19 05:47:49;;;;;;;11.43;3.53;;;5.90;99.90;;;;;;5050195;28;20037;-61
2022/03/19 05:50:15;;;;;;;7.07;2.70;;;5.90;99.90;;;;;;5050210;28;20492;-62
2022/03/19 05:52:41;;;;;;;9.23;3.28;;;5.90;99.90;;;;;;5048710;28;20037;-61
2022/03/19 05:55:08;;;;;;;18.23;3.60;;;5.80;99.90;;;;;;5050537;28;20481;-60
2022/03/19 05:57:35;;;;;;;11.20;3.28;;;5.90;99.90;;;;;;5050377;28;20474;-60
2022/03/19 06:00:01;;;;;;;27.27;4.40;;;5.90;99.90;;;;;;5049704;28;20098;-60
2022/03/19 06:02:26;;;;;;;10.93;3.88;;;5.90;99.90;;;;;;5050151;28;20491;-60
2022/03/19 06:04:53;;;;;;;8.80;3.05;;;5.90;99.90;;;;;;5050007;28;20091;-62
2022/03/19 06:07:19;;;;;;;12.25;3.35;;;6.00;99.90;;;;;;5050362;28;20086;-59
2022/03/19 06:09:44;;;;;;;12.57;3.38;;;6.00;99.90;;;;;;5049402;28;20033;-61
2022/03/19 06:12:10;;;;;;;18.08;3.85;;;6.00;99.90;;;;;;5050044;28;20113;-60
2022/03/19 06:14:36;;;;;;;13.02;3.42;;;6.10;99.90;;;;;;5049482;28;20051;-59
2022/03/19 06:17:01;;;;;;;12.23;3.70;;;6.10;99.90;;;;;;5049788;28;20025;-59
2022/03/19 06:19:27;;;;;;;13.82;3.42;;;6.10;99.90;;;;;;5049962;28;20029;-60
2022/03/19 06:21:53;;;;;;;11.00;2.75;;;6.10;99.90;;;;;;5049368;28;20037;-60
2022/03/19 06:24:20;;;;;;;23.90;4.28;;;6.10;99.90;;;;;;5049967;28;20096;-61
2022/03/19 06:26:46;;;;;;;10.32;2.90;;;6.10;99.90;;;;;;5049609;28;20074;-59
2022/03/19 06:29:11;;;;;;;18.17;3.88;;;6.20;99.90;;;;;;5049782;28;20215;-60
2022/03/19 06:31:37;;;;;;;17.38;3.42;;;6.20;99.90;;;;;;5049795;28;20087;-61
2022/03/19 06:34:03;;;;;;;11.23;3.10;;;6.20;99.90;;;;;;5049176;28;20246;-60
2022/03/19 06:39:13;;;;;;;10.40;3.30;;;6.30;99.90;;;;;;5049380;28;20086;-59
2022/03/19 06:41:39;;;;;;;16.70;3.33;;;6.40;99.90;;;;;;5050043;28;20033;-60
2022/03/19 06:44:05;;;;;;;17.65;4.10;;;6.40;99.90;;;;;;5051956;28;20041;-60
2022/03/19 06:46:31;;;;;;;18.35;3.53;;;6.50;99.90;;;;;;5049505;28;20060;-60
2022/03/19 06:48:56;;;;;;;9.70;3.10;;;6.60;99.90;;;;;;5048968;28;20064;-60
2022/03/19 06:51:22;;;;;;;12.40;3.05;;;6.60;99.90;;;;;;5045497;28;20104;-60
2022/03/19 06:53:49;;;;;;;10.18;3.10;;;6.60;99.90;;;;;;5049077;28;20025;-62
2022/03/19 06:56:15;;;;;;;10.18;3.25;;;6.70;99.90;;;;;;5048246;28;20029;-60
2022/03/19 06:58:44;;;;;;;17.70;2.83;;;6.70;99.90;;;;;;5049142;28;20673;-60
2022/03/19 07:01:14;;;;;;;12.00;2.95;;;6.70;99.90;;;;;;5048987;28;20044;-61
2022/03/19 07:03:42;;;;;;;8.88;2.72;;;6.80;99.90;;;;;;5048701;28;20484;-61
2022/03/19 07:06:07;;;;;;;18.20;2.60;;;6.90;99.90;;;;;;5049397;28;20041;-59
2022/03/19 07:08:33;;;;;;;12.88;4.32;;;6.90;99.90;;;;;;5049861;28;20093;-60
2022/03/19 07:10:59;;;;;;;18.65;4.15;;;7.00;99.90;;;;;;5048441;28;20392;-61
2022/03/19 07:13:24;;;;;;;10.48;2.83;;;7.10;99.90;;;;;;5049282;28;20117;-60
2022/03/19 07:15:51;;;;;;;18.45;3.85;;;7.20;99.90;;;;;;5048285;28;20037;-61
2022/03/19 07:18:16;;;;;;;9.18;3.00;;;7.40;99.90;;;;;;5049551;28;20025;-61
2022/03/19 07:20:42;;;;;;;10.20;3.13;;;7.50;99.90;;;;;;5048416;28;20086;-60
2022/03/19 07:23:07;;;;;;;13.18;2.55;;;7.60;99.90;;;;;;5049292;28;20029;-60
2022/03/19 07:25:35;;;;;;;10.23;2.85;;;7.70;99.90;;;;;;5049117;28;20489;-61
2022/03/19 07:28:11;;;;;;;16.95;2.67;;;7.90;99.90;;;;;;5051341;28;20903;-60
2022/03/19 07:30:38;;;;;;;9.95;1.90;;;8.00;99.90;;;;;;5051284;28;20033;-61
2022/03/19 07:33:04;;;;;;;16.27;2.95;;;8.20;99.90;;;;;;5052961;28;20029;-61
2022/03/19 07:35:30;;;;;;;8.32;2.40;;;8.40;99.90;;;;;;5053044;28;20117;-60
2022/03/19 07:37:57;;;;;;;13.60;2.75;;;8.40;99.90;;;;;;5052715;28;20087;-62
2022/03/19 07:43:09;;;;;;;11.63;1.95;;;8.70;99.90;;;;;;5054280;28;20040;-60
2022/03/19 07:45:36;;;;;;;8.93;1.58;;;8.80;99.90;;;;;;5052862;28;20056;-60
2022/03/19 07:48:02;;;;;;;8.48;2.22;;;8.90;99.90;;;;;;5052498;28;20033;-60
2022/03/19 07:50:28;;;;;;;12.27;2.10;;;9.20;99.90;;;;;;5052328;28;20037;-60
2022/03/19 07:52:53;;;;;;;5.57;1.92;;;9.40;99.90;;;;;;5052567;28;20043;-60
2022/03/19 07:55:19;;;;;;;7.05;2.38;;;9.70;99.90;;;;;;5052992;28;20108;-63
2022/03/19 07:57:45;;;;;;;5.60;1.70;;;9.90;99.90;;;;;;5052238;28;20037;-63
2022/03/19 08:00:12;;;;;;;3.97;2.17;;;10.00;99.90;;;;;;5052113;28;20033;-61
2022/03/19 08:02:39;;;;;;;13.27;2.00;;;9.90;99.90;;;;;;5052601;28;20057;-62
2022/03/19 08:05:06;;;;;;;9.93;2.30;;;9.90;99.90;;;;;;5052362;28;20619;-61
2022/03/19 08:07:31;;;;;;;9.73;1.83;;;9.90;99.90;;;;;;5052515;28;20543;-62
2022/03/19 08:09:57;;;;;;;5.57;1.83;;;9.90;99.90;;;;;;5051216;28;20061;-61
2022/03/19 08:12:24;;;;;;;12.52;2.42;;;9.90;99.90;;;;;;5048576;28;20036;-63
2022/03/19 08:14:49;;;;;;;7.30;1.65;;;10.00;99.90;;;;;;5049346;28;20021;-61
2022/03/19 08:17:15;;;;;;;4.85;1.25;;;10.00;99.90;;;;;;5050275;28;20045;-61
2022/03/19 08:19:42;;;;;;;5.40;2.08;;;10.20;99.90;;;;;;5049886;28;20107;-62
2022/03/19 08:22:08;;;;;;;4.38;1.40;;;10.20;99.90;;;;;;5049435;28;20056;-62
2022/03/19 08:24:35;;;;;;;5.70;1.75;;;10.10;99.90;;;;;;5050101;28;20114;-61
2022/03/19 08:27:01;;;;;;;4.32;1.65;;;10.10;99.90;;;;;;5051160;28;20087;-61
2022/03/19 08:29:26;;;;;;;9.32;2.10;;;10.10;99.90;;;;;;5050219;28;20405;-62
2022/03/19 08:31:52;;;;;;;9.75;1.92;;;10.10;99.90;;;;;;5051503;28;20078;-61
2022/03/19 08:34:18;;;;;;;6.72;1.63;;;10.20;99.90;;;;;;5050557;28;20029;-61
2022/03/19 08:36:44;;;;;;;4.93;1.00;;;10.20;99.90;;;;;;5051282;28;20109;-62
2022/03/19 08:41:54;;;;;;;6.82;1.80;;;10.30;99.90;;;;;;5046262;28;20196;-62
2022/03/19 08:44:20;;;;;;;4.32;1.40;;;10.30;99.90;;;;;;5046874;28;20108;-61
2022/03/19 08:46:46;;;;;;;6.03;2.30;;;10.40;99.90;;;;;;5046475;28;20131;-61
2022/03/19 08:49:11;;;;;;;5.10;1.33;;;10.40;99.90;;;;;;5047102;28;20405;-61
2022/03/19 08:51:40;;;;;;;9.02;2.15;;;10.50;99.90;;;;;;5047995;28;20025;-62
2022/03/19 08:54:08;;;;;;;9.25;1.30;;;10.50;99.80;;;;;;5048231;28;20045;-61
2022/03/19 08:56:34;;;;;;;4.95;1.40;;;10.60;99.50;;;;;;5047087;28;20028;-61
2022/03/19 08:59:01;;;;;;;6.72;1.52;;;10.70;98.90;;;;;;5048019;28;20041;-61
2022/03/19 09:01:27;;;;;;;4.15;1.30;;;10.70;99.30;;;;;;5048314;28;20071;-62
2022/03/19 09:03:54;;;;;;;6.57;1.48;;;10.80;99.60;;;;;;5047568;28;20133;-62
2022/03/19 09:06:20;;;;;;;7.55;1.73;;;10.80;98.90;;;;;;5048532;28;20037;-61
2022/03/19 09:08:47;;;;;;;9.45;1.67;;;10.90;98.60;;;;;;5047416;28;20059;-61
2022/03/19 09:11:13;;;;;;;6.90;2.17;;;11.00;97.80;;;;;;5048087;28;20028;-61
2022/03/19 09:13:39;;;;;;;4.88;1.35;;;11.00;98.00;;;;;;5048500;28;20037;-63
2022/03/19 09:16:06;;;;;;;10.05;1.42;;;11.00;97.60;;;;;;5046007;28;20082;-61
2022/03/19 09:18:32;;;;;;;6.75;1.30;;;11.20;96.60;;;;;;5048199;28;20037;-61
2022/03/19 09:20:58;;;;;;;7.63;1.30;;;11.20;96.10;;;;;;5045596;28;20064;-60
2022/03/19 09:23:24;;;;;;;9.35;2.42;;;11.30;96.60;;;;;;5048581;28;20033;-61
2022/03/19 09:25:50;;;;;;;7.57;1.17;;;11.30;95.20;;;;;;5047332;28;20083;-62
2022/03/19 09:28:16;;;;;;;7.15;1.55;;;11.50;95.80;;;;;;5047961;28;20087;-62
2022/03/19 09:30:41;;;;;;;5.47;1.40;;;11.50;95.50;;;;;;5042934;28;20397;-61
2022/03/19 09:33:07;;;;;;;11.38;2.38;;;11.60;94.40;;;;;;5047752;28;20068;-62
2022/03/19 09:35:34;;;;;;;6.10;1.40;;;11.60;94.90;;;;;;5048223;28;20097;-61
2022/03/19 09:37:59;;;;;;;3.25;1.10;;;11.60;94.50;;;;;;5047380;28;20385;-63
2022/03/19 09:40:25;;;;;;;8.68;1.52;;;11.60;93.60;;;;;;5047601;28;20045;-62
2022/03/19 09:42:53;;;;;;;4.68;1.10;;;11.70;93.70;;;;;;5049202;28;20128;-62
2022/03/19 09:45:20;;;;;;;3.75;1.13;;;11.80;92.20;;;;;;5047384;28;20037;-62
2022/03/19 09:47:46;;;;;;;2.17;0.90;;;11.80;93.40;;;;;;5047484;28;20111;-61
2022/03/19 09:50:12;;;;;;;5.65;1.27;;;12.00;91.90;;;;;;5046003;28;20052;-61
2022/03/19 09:52:41;;;;;;;7.30;1.50;;;12.10;92.20;;;;;;5047545;28;20060;-61
2022/03/19 09:55:07;;;;;;;5.47;1.25;;;12.10;91.00;;;;;;5047183;28;20041;-63
2022/03/19 09:57:33;;;;;;;4.28;1.67;;;12.10;91.10;;;;;;5047890;28;20082;-61
2022/03/19 09:59:58;;;;;;;8.25;1.58;;;12.20;89.90;;;;;;5047870;28;20048;-63
2022/03/19 10:02:24;;;;;;;4.43;0.88;;;12.10;87.60;;;;;;5048963;28;20032;-61
2022/03/19 10:08:35;;;;;;;4.00;1.27;;;12.10;88.20;;;;;;5049250;28;20048;-62
2022/03/19 10:10:34;;;;;;;5.33;1.00;;;12.30;86.70;;;;;;5047995;28;20581;-62
2022/03/19 10:12:59;;;;;;;5.18;1.20;;;12.40;87.20;;;;;;5048868;28;20116;-61
2022/03/19 10:15:27;;;;;;;3.72;1.08;;;12.40;83.70;;;;;;5048916;28;20067;-63
2022/03/19 10:18:00;;;;;;;6.32;1.45;;;12.40;81.10;;;;;;5048577;28;20511;-60
2022/03/19 10:20:27;;;;;;;5.63;0.85;;;12.40;80.60;;;;;;5046799;28;20068;-63
2022/03/19 10:22:56;;;;;;;5.47;0.65;;;12.40;78.30;;;;;;5045989;28;20489;-62
2022/03/19 10:25:22;;;;;;;4.20;0.80;;;12.40;77.40;;;;;;5048462;28;20040;-62
2022/03/19 10:27:48;;;;;;;2.50;0.63;;;12.50;77.50;;;;;;5047914;28;20115;-60
2022/03/19 10:30:31;;;;;;;3.08;0.63;;;12.60;75.80;;;;;;5049385;28;20029;-62
2022/03/19 10:32:57;;;;;;;4.05;1.23;;;12.60;73.80;;;;;;5046136;28;20133;-61
2022/03/19 10:35:23;;;;;;;5.53;1.35;;;12.70;73.40;;;;;;5046200;28;20119;-61
2022/03/19 10:37:49;;;;;;;2.72;0.60;;;12.70;72.00;;;;;;5049096;28;20045;-62
2022/03/19 10:40:14;;;;;;;4.45;1.10;;;12.80;70.30;;;;;;5048998;28;20126;-60
2022/03/19 10:42:41;;;;;;;4.18;1.10;;;12.80;67.50;;;;;;5050875;28;20476;-60
2022/03/19 10:45:09;;;;;;;1.52;0.40;;;12.80;66.20;;;;;;5047918;28;20037;-61
2022/03/19 10:47:43;;;;;;;5.63;0.80;;;12.80;65.90;;;;;;5047019;28;20029;-61
2022/03/19 10:50:10;;;;;;;4.28;1.15;;;12.70;64.10;;;;;;5046720;28;20037;-61
2022/03/19 10:52:36;;;;;;;7.78;0.90;;;12.70;64.10;;;;;;5049028;28;20044;-61
2022/03/19 10:55:07;;;;;;;5.55;0.63;;;12.70;62.60;;;;;;5048874;28;20033;-61
2022/03/19 10:57:33;;;;;;;2.28;0.50;;;12.80;60.80;;;;;;5049576;28;20045;-62
2022/03/19 10:59:59;;;;;;;1.98;0.40;;;12.80;59.30;;;;;;5048144;28;20068;-61
2022/03/19 11:02:27;;;;;;;4.53;0.82;;;12.80;58.70;;;;;;5048848;28;20492;-61
2022/03/19 11:04:55;;;;;;;2.55;0.50;;;12.80;57.60;;;;;;5049066;28;20123;-61
2022/03/19 11:07:23;;;;;;;2.10;0.45;;;12.70;57.90;;;;;;5049248;28;20040;-61
2022/03/19 11:09:52;;;;;;;2.83;0.95;;;12.70;58.40;;;;;;5048624;28;20798;-61
2022/03/19 11:12:20;;;;;;;4.55;0.55;;;12.80;59.40;;;;;;5049313;28;20071;-73
2022/03/19 11:14:49;;;;;;;3.58;0.70;;;12.80;58.90;;;;;;5047992;28;20103;-63
2022/03/19 11:17:30;;;;;;;8.40;0.50;;;12.80;58.40;;;;;;5044865;28;20045;-62
2022/03/19 11:20:01;;;;;;;4.65;1.20;;;12.80;58.80;;;;;;5045873;28;20044;-60
2022/03/19 11:22:39;;;;;;;1.70;0.40;;;12.80;58.60;;;;;;5047014;28;20029;-62
2022/03/19 11:25:06;;;;;;;2.65;0.68;;;12.90;57.30;;;;;;5046224;28;20489;-62
2022/03/19 11:27:35;;;;;;;2.88;0.40;;;12.90;57.20;;;;;;5047311;28;20037;-61
2022/03/19 11:30:01;;;;;;;1.17;0.28;;;12.90;55.70;;;;;;5046002;28;20033;-62
2022/03/19 11:32:26;;;;;;;3.33;0.70;;;13.00;55.10;;;;;;5045900;28;20029;-62
2022/03/19 11:34:59;;;;;;;3.50;0.57;;;13.00;55.30;;;;;;5046568;28;20025;-62
2022/03/19 11:37:45;;;;;;;1.80;0.65;;;13.00;55.20;;;;;;5046954;28;20021;-61
2022/03/19 11:40:11;;;;;;;6.00;0.52;;;13.00;54.20;;;;;;5043680;28;20150;-61
2022/03/19 11:42:54;;;;;;;2.97;0.40;;;13.00;53.10;;;;;;5046862;28;20069;-61
2022/03/19 11:45:19;;;;;;;3.92;0.75;;;13.00;53.20;;;;;;5047027;28;20033;-61
2022/03/19 11:47:45;;;;;;;6.55;1.05;;;13.00;54.10;;;;;;5046436;28;20124;-63
2022/03/19 11:50:23;;;;;;;2.20;0.40;;;13.00;54.30;;;;;;5046931;28;20501;-62
2022/03/19 11:52:54;;;;;;;6.93;1.30;;;13.00;54.20;;;;;;5045092;28;20063;-62
2022/03/19 11:55:23;;;;;;;1.63;0.40;;;13.00;55.10;;;;;;5043235;28;20036;-62
2022/03/19 11:58:00;;;;;;;2.38;0.75;;;13.00;53.20;;;;;;5044305;28;20397;-62
2022/03/19 12:00:31;;;;;;;5.88;1.58;;;13.00;54.20;;;;;;5047249;28;20064;-60
2022/03/19 12:03:13;;;;;;;3.28;0.82;;;13.10;54.70;;;;;;5047241;28;20512;-62
2022/03/19 12:05:42;;;;;;;7.60;0.82;;;13.20;53.30;;;;;;5043924;28;20059;-62
2022/03/19 12:08:09;;;;;;;1.63;0.30;;;13.20;52.10;;;;;;5047599;28;20033;-61
2022/03/19 12:11:02;;;;;;;3.67;0.50;;;13.20;52.40;;;;;;5043548;28;20053;-62
2022/03/19 12:13:27;;;;;;;2.03;1.20;;;13.20;51.50;;;;;;5045687;28;20045;-61
2022/03/19 12:16:04;;;;;;;4.40;0.60;;;13.20;51.80;;;;;;5046399;28;20540;-62
2022/03/19 12:18:39;;;;;;;4.00;0.43;;;13.20;51.40;;;;;;5050040;28;20037;-61
2022/03/19 12:21:16;;;;;;;5.35;0.40;;;13.20;51.40;;;;;;5035223;28;20041;-61
2022/03/19 12:24:06;;;;;;;2.22;0.30;;;13.30;50.10;;;;;;5027287;28;20060;-62
2022/03/19 12:26:41;;;;;;;5.70;0.40;;;13.40;50.10;;;;;;5029523;28;20033;-61
2022/03/19 12:29:10;;;;;;;2.85;0.70;;;13.30;49.60;;;;;;5028709;28;20041;-60
2022/03/19 12:31:38;;;;;;;4.35;0.35;;;13.30;49.70;;;;;;5025911;28;20033;-62
2022/03/19 12:34:05;;;;;;;3.78;0.35;;;13.30;50.10;;;;;;5026134;28;20057;-61
2022/03/19 12:36:31;;;;;;;3.97;0.38;;;13.30;51.00;;;;;;5028974;28;20046;-62
2022/03/19 12:39:04;;;;;;;2.05;0.13;;;13.40;51.10;;;;;;5030084;28;20041;-61
2022/03/19 12:41:31;;;;;;;2.45;0.30;;;13.40;48.60;;;;;;5027657;28;20112;-61
2022/03/19 12:44:29;;;;;;;2.72;0.50;;;13.50;50.20;;;;;;5029576;28;20044;-63
2022/03/19 12:47:02;;;;;;;3.95;0.60;;;13.50;50.10;;;;;;5038708;28;20033;-61
2022/03/19 12:49:30;;;;;;;2.63;0.65;;;13.60;51.30;;;;;;5051356;28;20100;-62
2022/03/19 12:51:57;;;;;;;4.55;0.50;;;13.60;51.30;;;;;;5051029;28;20044;-61
2022/03/19 12:54:31;;;;;;;5.35;0.43;;;13.70;49.50;;;;;;5051454;28;20029;-62
2022/03/19 12:57:06;;;;;;;1.13;0.30;;;13.60;50.80;;;;;;5050574;28;20186;-61
2022/03/19 12:59:32;;;;;;;1.70;0.30;;;13.70;50.10;;;;;;5047719;28;20439;-61
2022/03/19 13:01:57;;;;;;;6.05;0.60;;;13.80;49.20;;;;;;5050886;28;20036;-61
2022/03/19 13:04:28;;;;;;;4.07;0.38;;;13.80;48.50;;;;;;5051429;28;20029;-61